createdAt,value
2019-01-25T00:00:11.582Z,77.21
2019-01-25T00:05:07.874Z,77.85
2019-01-25T00:10:07.102Z,77.56
2019-01-25T00:15:09.047Z,75.91
2019-01-25T00:20:07.690Z,75.64
2019-01-25T00:25:04.276Z,75.74
2019-01-25T00:30:00.224Z,76.25
2019-01-25T00:34:56.107Z,75.43
2019-01-25T00:39:51.993Z,76.13
2019-01-25T00:44:48.600Z,75.23
2019-01-25T00:49:44.845Z,75.80
2019-01-25T00:54:40.746Z,75.21
2019-01-25T00:59:36.632Z,75.68
2019-01-25T01:04:32.652Z,75.74
2019-01-25T01:09:28.549Z,75.50
2019-01-25T01:14:25.968Z,75.74
2019-01-25T01:19:22.016Z,76.63
2019-01-25T01:24:17.922Z,74.07
2019-01-25T01:29:13.837Z,75.42
2019-01-25T01:34:09.733Z,76.61
2019-01-25T01:39:06.035Z,77.18
2019-01-25T01:44:11.406Z,77.48
2019-01-25T01:49:07.309Z,75.76
2019-01-25T01:54:03.308Z,73.12
2019-01-25T01:58:59.200Z,72.49
2019-01-25T02:03:55.102Z,74.07
2019-01-25T02:08:50.998Z,74.48
2019-01-25T02:13:46.902Z,75.03
2019-01-25T02:18:42.795Z,75.70
2019-01-25T02:23:38.685Z,76.75
2019-01-25T02:28:34.577Z,77.19
2019-01-25T02:33:30.461Z,77.13
2019-01-25T02:38:26.355Z,77.30
2019-01-25T02:43:22.245Z,76.50
2019-01-25T02:48:18.114Z,77.16
2019-01-25T02:53:14.013Z,73.08
2019-01-25T02:58:09.909Z,74.44
2019-01-25T03:03:05.796Z,73.00
2019-01-25T03:08:01.913Z,73.23
2019-01-25T03:12:57.809Z,73.16
2019-01-25T03:17:53.808Z,74.89
2019-01-25T03:22:49.820Z,73.23
2019-01-25T03:27:45.804Z,73.23
2019-01-25T03:32:41.703Z,73.25
2019-01-25T03:37:37.607Z,73.56
2019-01-25T03:42:33.497Z,73.62
2019-01-25T03:47:29.397Z,72.74
2019-01-25T03:52:25.282Z,73.01
2019-01-25T03:57:21.199Z,73.29
2019-01-25T04:02:17.212Z,72.43
2019-01-25T04:07:13.234Z,72.95
2019-01-25T04:12:09.158Z,71.92
2019-01-25T04:17:05.253Z,72.25
2019-01-25T04:22:01.150Z,73.15
2019-01-25T04:26:57.144Z,73.58
2019-01-25T04:31:53.232Z,73.52
2019-01-25T04:36:49.330Z,73.22
2019-01-25T04:41:45.252Z,73.91
2019-01-25T04:46:41.147Z,72.41
2019-01-25T04:51:37.055Z,72.81
2019-01-25T04:56:36.008Z,73.26
2019-01-25T05:01:32.397Z,72.54
2019-01-25T05:06:28.298Z,72.71
2019-01-25T05:11:24.315Z,73.00
2019-01-25T05:16:20.236Z,72.84
2019-01-25T05:21:41.452Z,71.48
2019-01-25T05:26:37.376Z,70.86
2019-01-25T05:31:33.268Z,72.00
2019-01-25T05:36:29.165Z,71.90
2019-01-25T05:41:28.606Z,72.72
2019-01-25T05:46:22.867Z,72.12
2019-01-25T05:51:18.770Z,71.71
2019-01-25T05:56:14.668Z,71.95
2019-01-25T06:01:10.553Z,71.29
2019-01-25T06:06:06.927Z,71.92
2019-01-25T06:11:05.774Z,71.84
2019-01-25T06:16:01.921Z,71.49
2019-01-25T06:20:57.997Z,72.15
2019-01-25T06:25:55.794Z,71.72
2019-01-25T06:30:52.190Z,71.07
2019-01-25T06:35:48.089Z,70.98
2019-01-25T06:40:44.000Z,71.07
2019-01-25T06:45:39.995Z,70.30
2019-01-25T06:50:35.910Z,70.49
2019-01-25T06:55:31.803Z,70.84
2019-01-25T07:00:46.294Z,70.90
2019-01-25T07:05:42.192Z,70.44
2019-01-25T07:10:38.243Z,69.71
2019-01-25T07:15:34.145Z,70.64
2019-01-25T07:20:30.034Z,70.78
2019-01-25T07:25:26.173Z,70.72
2019-01-25T07:30:22.183Z,70.66
2019-01-25T07:35:18.091Z,70.28
2019-01-25T07:40:13.975Z,69.88
2019-01-25T07:45:11.475Z,70.40
2019-01-25T07:50:09.380Z,70.57
2019-01-25T07:55:09.550Z,70.80
2019-01-25T08:00:12.238Z,71.14
2019-01-25T08:05:11.014Z,70.57
2019-01-25T08:10:21.535Z,70.84
2019-01-25T08:15:19.854Z,70.17
2019-01-25T08:20:15.856Z,70.17
2019-01-25T08:25:11.961Z,69.94
2019-01-25T08:30:11.339Z,70.30
2019-01-25T08:35:08.934Z,69.73
2019-01-25T08:40:08.351Z,70.47
2019-01-25T08:45:08.149Z,70.42
2019-01-25T08:50:07.907Z,70.92
2019-01-25T08:55:04.132Z,71.47
2019-01-25T09:00:03.441Z,71.13
2019-01-25T09:04:59.343Z,71.44
2019-01-25T09:09:57.961Z,71.85
2019-01-25T09:14:54.660Z,71.21
2019-01-25T09:19:51.981Z,70.66
2019-01-25T09:24:49.371Z,70.66
2019-01-25T09:29:45.274Z,70.93
2019-01-25T09:34:42.023Z,70.48
2019-01-25T09:39:37.928Z,70.60
2019-01-25T09:44:39.573Z,70.90
2019-01-25T09:49:37.304Z,71.83
2019-01-25T09:54:34.436Z,72.09
2019-01-25T09:59:31.697Z,70.40
2019-01-25T10:04:28.448Z,71.01
2019-01-25T10:09:25.409Z,71.41
2019-01-25T10:14:23.741Z,71.31
2019-01-25T10:19:19.739Z,71.48
2019-01-25T10:24:15.636Z,70.86
2019-01-25T10:29:12.044Z,71.67
2019-01-25T10:34:08.143Z,72.52
2019-01-25T10:39:05.837Z,72.72
2019-01-25T10:44:05.460Z,73.04
2019-01-25T10:49:01.461Z,73.17
2019-01-25T10:53:57.387Z,73.93
2019-01-25T10:58:53.294Z,74.21
2019-01-25T11:03:49.185Z,73.89
2019-01-25T11:08:45.238Z,73.52
2019-01-25T11:13:41.138Z,73.16
2019-01-25T11:18:37.162Z,74.71
2019-01-25T11:23:33.073Z,74.79
2019-01-25T11:28:28.966Z,74.77
2019-01-25T11:33:24.862Z,75.35
2019-01-25T11:38:20.760Z,75.38
2019-01-25T11:43:16.655Z,75.21
2019-01-25T11:48:12.910Z,75.60
2019-01-25T11:53:08.829Z,76.29
2019-01-25T11:58:04.900Z,76.29
2019-01-25T12:03:00.802Z,75.97
2019-01-25T12:07:56.737Z,75.43
2019-01-25T12:12:52.759Z,75.91
2019-01-25T12:17:48.782Z,75.75
2019-01-25T12:22:44.669Z,75.72
2019-01-25T12:27:40.571Z,76.18
2019-01-25T12:32:36.503Z,75.56
2019-01-25T12:37:34.476Z,76.59
2019-01-25T12:42:30.623Z,77.91
2019-01-25T12:47:26.525Z,79.48
2019-01-25T12:52:22.429Z,79.38
2019-01-25T12:57:18.325Z,79.71
2019-01-25T13:02:14.218Z,79.56
2019-01-25T13:07:10.241Z,80.24
2019-01-25T13:12:06.172Z,81.55
2019-01-25T13:17:02.067Z,82.09
2019-01-25T13:21:58.019Z,83.30
2019-01-25T13:26:53.886Z,83.43
2019-01-25T13:31:49.883Z,83.06
2019-01-25T13:36:46.076Z,84.03
2019-01-25T13:41:42.178Z,83.44
2019-01-25T13:46:39.228Z,83.06
2019-01-25T13:51:35.327Z,82.25
2019-01-25T13:56:31.237Z,82.24
2019-01-25T14:01:34.366Z,82.24
2019-01-25T14:06:25.178Z,81.94
2019-01-25T14:11:21.905Z,82.45
2019-01-25T14:16:17.923Z,83.31
2019-01-25T14:21:13.839Z,83.31
2019-01-25T14:26:09.835Z,83.67
2019-01-25T14:31:05.750Z,83.77
2019-01-25T14:36:01.641Z,83.69
2019-01-25T14:40:57.532Z,83.87
2019-01-25T14:45:57.405Z,83.92
2019-01-25T14:50:53.375Z,83.89
2019-01-25T14:55:49.307Z,83.85
2019-01-25T15:00:45.201Z,84.05
2019-01-25T15:05:41.094Z,83.69
2019-01-25T15:10:37.025Z,83.86
2019-01-25T15:15:33.122Z,83.43
2019-01-25T15:20:29.026Z,83.73
2019-01-25T15:25:25.202Z,84.49
2019-01-25T15:30:27.019Z,84.82
2019-01-25T15:35:23.870Z,84.20
2019-01-25T15:40:20.797Z,84.40
2019-01-25T15:45:18.396Z,84.71
2019-01-25T15:50:20.306Z,84.77
2019-01-25T15:55:18.571Z,85.33
2019-01-25T16:00:41.627Z,84.92
2019-01-25T16:05:37.897Z,84.70
2019-01-25T16:10:33.960Z,84.93
2019-01-25T16:15:30.069Z,84.80
2019-01-25T16:20:26.094Z,84.80
2019-01-25T16:25:24.685Z,85.27
2019-01-25T16:30:25.832Z,85.46
2019-01-25T16:35:21.907Z,85.02
2019-01-25T16:40:20.514Z,85.29
2019-01-25T16:45:22.398Z,86.08
2019-01-25T16:50:23.645Z,86.50
2019-01-25T16:55:16.621Z,87.44
2019-01-25T17:00:28.667Z,87.88
2019-01-25T17:05:25.109Z,88.08
2019-01-25T17:10:21.278Z,88.38
2019-01-25T17:15:17.392Z,87.73
2019-01-25T17:20:21.453Z,88.21
2019-01-25T17:25:17.298Z,88.74
2019-01-25T17:30:31.272Z,89.00
2019-01-25T17:35:27.558Z,89.49
2019-01-25T17:40:32.728Z,90.11
2019-01-25T17:45:29.282Z,90.33
2019-01-25T17:50:25.305Z,90.27
2019-01-25T17:55:21.354Z,91.10
2019-01-25T18:00:27.652Z,91.21
2019-01-25T18:05:23.667Z,91.60
2019-01-25T18:10:21.954Z,91.96
2019-01-25T18:15:18.787Z,91.46
2019-01-25T18:20:16.570Z,91.25
2019-01-25T18:25:19.345Z,91.49
2019-01-25T18:30:31.155Z,91.84
2019-01-25T18:35:27.157Z,91.96
2019-01-25T18:40:23.086Z,92.28
2019-01-25T18:45:19.085Z,92.67
2019-01-25T18:50:15.203Z,92.55
2019-01-25T18:55:14.329Z,92.44
2019-01-25T19:00:13.733Z,92.62
2019-01-25T19:05:09.750Z,92.79
2019-01-25T19:10:20.604Z,92.69
2019-01-25T19:15:19.772Z,92.66
2019-01-25T19:20:16.101Z,92.82
2019-01-25T19:25:12.130Z,92.68
2019-01-25T19:30:20.577Z,92.94
2019-01-25T19:35:16.806Z,92.69
2019-01-25T19:40:18.835Z,93.18
2019-01-25T19:45:15.557Z,93.11
2019-01-25T19:50:14.997Z,92.66
2019-01-25T19:55:14.121Z,92.92
2019-01-25T20:00:19.054Z,93.22
2019-01-25T20:05:18.686Z,93.34
2019-01-25T20:10:15.441Z,93.48
2019-01-25T20:15:19.566Z,93.58
2019-01-25T20:20:17.819Z,93.40
2019-01-25T20:25:14.949Z,93.58
2019-01-25T20:30:14.975Z,93.49
2019-01-25T20:35:14.395Z,93.24
2019-01-25T20:40:13.092Z,93.29
2019-01-25T20:45:12.964Z,93.11
2019-01-25T20:50:12.276Z,93.17
2019-01-25T20:55:14.531Z,93.37
2019-01-25T21:00:14.164Z,92.95
2019-01-25T21:05:10.064Z,93.22
2019-01-25T21:10:09.403Z,93.18
2019-01-25T21:15:08.818Z,93.08
2019-01-25T21:20:11.027Z,93.51
2019-01-25T21:25:07.137Z,93.49
2019-01-25T21:30:09.819Z,93.54
2019-01-25T21:35:07.781Z,93.53
2019-01-25T21:40:08.609Z,93.80
2019-01-25T21:45:09.478Z,93.85
2019-01-25T21:50:09.090Z,93.04
2019-01-25T21:55:08.312Z,93.09
2019-01-25T22:00:14.023Z,93.31
2019-01-25T22:05:10.331Z,93.10
2019-01-25T22:10:18.029Z,93.37
2019-01-25T22:15:15.946Z,93.13
2019-01-25T22:20:17.452Z,93.00
2019-01-25T22:25:13.896Z,92.90
2019-01-25T22:30:16.011Z,93.23
2019-01-25T22:35:12.011Z,93.42
2019-01-25T22:40:17.135Z,93.68
2019-01-25T22:45:16.219Z,93.95
2019-01-25T22:50:20.449Z,94.07
2019-01-25T22:55:18.059Z,93.90
2019-01-25T23:00:22.542Z,93.99
2019-01-25T23:05:33.816Z,93.51
2019-01-25T23:10:29.789Z,93.86
2019-01-25T23:15:25.708Z,94.38
2019-01-25T23:20:21.725Z,94.57
2019-01-25T23:25:17.641Z,94.56
2019-01-25T23:30:14.122Z,94.25
2019-01-25T23:35:10.124Z,94.11
2019-01-25T23:40:07.554Z,94.37
2019-01-25T23:45:05.607Z,94.67
2019-01-25T23:50:02.690Z,94.93
2019-01-25T23:54:58.587Z,94.43
2019-01-25T23:59:54.510Z,94.47
